IFU weather

Ifuru Airport
Ifuru Island, Raa, Maldives

Public forecast

Using degrees Celsius for public forecast. Weather courtesy of forecast.io.

Closest aviation weather report (METAR) to Ifuru Airport

Closest report is MalĂ© International Airport, 95.9 nm (177.6 km) SSE. Retrieved 2020/07/12 08:00 UTC (20 minutes ago):

VRMM 120800Z 26003KT 9999 FEW018TCU SCT130 BKN260 31/25 Q1008 NOSIG

Closest aviation forecast (TAF) to Ifuru Airport

Closest forecast is Hanimaadhoo Airport, 62.8 nm (116.3 km) N. Retrieved 2020/07/12 06:00 UTC (2 hours ago):

TAF VRMH 120500Z 1206/1312 32005KT 9999 SCT017TCU SCT100 TEMPO 1200/1206 4000 TSRA SCT017CB